Time;durP1;ratioP1;P1;durP2;ratioP2;P2;SDS_P1;SDS_P2;PMS_P1;PMS_P2;Temp;Humidity;BMP_temperature;BMP_pressure;BME280_temperature;BME280_humidity;BME280_pressure;Samples;Min_cycle;Max_cycle;Signal;HPM_P1;HPM_P2
2021/12/29 00:01:24;;;;;;;10.00;4.97;;;;;;;-11.64;100.00;99459.56;5153674;27;20098;-62
2021/12/29 00:03:51;;;;;;;12.55;5.53;;;;;;;-11.60;100.00;99481.91;5153470;27;20046;-62
2021/12/29 00:06:17;;;;;;;12.45;6.03;;;;;;;-11.56;100.00;99490.22;5153601;27;20047;-63
2021/12/29 00:08:43;;;;;;;12.63;5.85;;;;;;;-11.59;100.00;99480.91;5153135;27;20047;-63
2021/12/29 00:11:09;;;;;;;17.73;6.70;;;;;;;-11.67;100.00;99486.44;5153409;27;20050;-62
2021/12/29 00:13:36;;;;;;;12.48;6.25;;;;;;;-11.63;100.00;99490.28;5153259;27;20055;-62
2021/12/29 00:16:03;;;;;;;13.60;6.40;;;;;;;-11.68;100.00;99476.88;5153456;27;20099;-63
2021/12/29 00:18:31;;;;;;;17.92;6.35;;;;;;;-11.67;100.00;99479.31;5153658;27;20050;-63
2021/12/29 00:20:59;;;;;;;14.77;5.90;;;;;;;-11.61;100.00;99478.47;5153050;27;20046;-63
2021/12/29 00:23:26;;;;;;;11.70;5.65;;;;;;;-11.58;100.00;99474.59;5153482;27;20050;-63
2021/12/29 00:25:53;;;;;;;12.63;5.57;;;;;;;-11.51;100.00;99479.84;5153135;27;20102;-63
2021/12/29 00:28:19;;;;;;;13.20;6.03;;;;;;;-11.53;100.00;99466.81;5153251;27;20458;-62
2021/12/29 00:30:46;;;;;;;15.38;6.20;;;;;;;-11.54;100.00;99459.09;5153004;27;20134;-63
2021/12/29 00:33:13;;;;;;;12.60;4.68;;;;;;;-11.53;100.00;99447.47;5152996;27;20043;-63
2021/12/29 00:35:41;;;;;;;10.98;5.55;;;;;;;-11.60;100.00;99439.59;5153003;27;20051;-63
2021/12/29 00:38:10;;;;;;;13.63;5.13;;;;;;;-11.63;100.00;99443.50;5153049;27;20562;-63
2021/12/29 00:40:37;;;;;;;9.80;4.78;;;;;;;-11.64;100.00;99446.34;5152783;27;20050;-63
2021/12/29 00:43:05;;;;;;;16.35;6.22;;;;;;;-11.65;100.00;99445.53;5152441;27;20114;-62
2021/12/29 00:45:34;;;;;;;12.68;6.00;;;;;;;-11.66;100.00;99441.28;5153027;27;20417;-62
2021/12/29 00:48:01;;;;;;;15.07;6.20;;;;;;;-11.60;100.00;99436.94;5152790;27;20078;-62
2021/12/29 00:50:28;;;;;;;10.88;5.97;;;;;;;-11.65;100.00;99439.44;5153002;27;20043;-63
2021/12/29 00:52:54;;;;;;;12.50;5.25;;;;;;;-11.63;100.00;99437.38;5152542;27;20053;-63
2021/12/29 00:55:20;;;;;;;12.07;6.72;;;;;;;-11.57;100.00;99441.81;5152851;27;20043;-63
2021/12/29 00:57:47;;;;;;;16.70;6.25;;;;;;;-11.64;100.00;99433.09;5152631;27;20059;-63
2021/12/29 01:00:18;;;;;;;16.08;6.32;;;;;;;-11.67;100.00;99422.94;5152860;27;20055;-63
2021/12/29 01:02:44;;;;;;;12.85;6.38;;;;;;;-11.71;100.00;99406.72;5152323;27;20085;-62
2021/12/29 01:05:14;;;;;;;12.23;5.80;;;;;;;-11.77;100.00;99401.47;5152375;27;20049;-63
2021/12/29 01:07:41;;;;;;;16.45;5.05;;;;;;;-11.83;100.00;99392.53;5152357;27;20053;-62
2021/12/29 01:10:08;;;;;;;14.80;5.97;;;;;;;-11.79;100.00;99396.41;5152567;27;20051;-62
2021/12/29 01:12:34;;;;;;;14.88;5.57;;;;;;;-11.76;100.00;99401.25;5152606;27;20137;-63
2021/12/29 01:15:02;;;;;;;10.40;5.05;;;;;;;-11.74;100.00;99395.75;5152199;27;20134;-62
2021/12/29 01:17:31;;;;;;;12.10;5.32;;;;;;;-11.74;100.00;99393.91;5152646;27;20057;-62
2021/12/29 01:19:57;;;;;;;15.27;6.03;;;;;;;-11.74;100.00;99393.91;5152245;27;20046;-62
2021/12/29 01:22:24;;;;;;;12.70;6.07;;;;;;;-11.69;100.00;99388.00;5152474;27;20082;-63
2021/12/29 01:24:51;;;;;;;16.92;6.00;;;;;;;-11.68;100.00;99371.91;5152085;27;20042;-62
2021/12/29 01:27:18;;;;;;;13.60;5.47;;;;;;;-11.62;100.00;99360.47;5152254;27;20051;-62
2021/12/29 01:29:46;;;;;;;13.93;5.45;;;;;;;-11.63;100.00;99347.44;5152019;27;20471;-63
2021/12/29 01:32:12;;;;;;;13.88;5.07;;;;;;;-11.76;100.00;99321.94;5151992;27;20076;-62
2021/12/29 01:34:39;;;;;;;11.80;5.32;;;;;;;-11.71;100.00;99316.78;5152111;27;20050;-63
2021/12/29 01:37:05;;;;;;;15.68;5.97;;;;;;;-11.68;100.00;99307.63;5151993;27;20051;-63
2021/12/29 01:39:31;;;;;;;10.88;4.63;;;;;;;-11.73;100.00;99315.38;5151813;27;20186;-63
2021/12/29 01:41:59;;;;;;;10.93;5.00;;;;;;;-11.72;100.00;99309.88;5151400;27;20043;-62
2021/12/29 01:44:28;;;;;;;10.70;4.50;;;;;;;-11.62;100.00;99318.13;5152114;27;20050;-63
2021/12/29 01:46:56;;;;;;;13.32;6.03;;;;;;;-11.61;100.00;99311.00;5151922;27;20046;-62
2021/12/29 01:49:23;;;;;;;9.30;4.18;;;;;;;-11.70;100.00;99288.50;5151999;27;20055;-62
2021/12/29 01:51:59;;;;;;;9.95;4.53;;;;;;;-11.61;100.00;99303.06;5151735;27;20099;-63
2021/12/29 01:54:26;;;;;;;12.52;4.47;;;;;;;-11.54;100.00;99300.38;5151989;27;20047;-63
2021/12/29 01:56:54;;;;;;;12.93;5.47;;;;;;;-11.57;100.00;99284.94;5151828;27;20043;-62
2021/12/29 01:59:22;;;;;;;13.70;5.25;;;;;;;-11.53;100.00;99283.47;5151612;27;20062;-63
2021/12/29 02:01:49;;;;;;;9.20;4.78;;;;;;;-11.50;100.00;99269.78;5151620;27;20042;-63
2021/12/29 02:04:15;;;;;;;10.50;4.90;;;;;;;-11.49;100.00;99264.31;5151520;27;20057;-63
2021/12/29 02:06:42;;;;;;;10.55;4.85;;;;;;;-11.47;100.00;99243.72;5151639;27;20133;-63
2021/12/29 02:09:09;;;;;;;8.80;4.47;;;;;;;-11.48;100.00;99225.44;5151479;27;20059;-63
2021/12/29 02:11:37;;;;;;;12.20;5.63;;;;;;;-11.58;100.00;99204.78;5151683;27;20134;-63
2021/12/29 02:14:06;;;;;;;11.20;5.28;;;;;;;-11.54;100.00;99205.13;5150844;27;20141;-63
2021/12/29 02:16:34;;;;;;;12.43;4.93;;;;;;;-11.58;100.00;99196.84;5151660;27;20049;-63
2021/12/29 02:19:04;;;;;;;9.57;4.78;;;;;;;-11.61;100.00;99189.34;5151399;27;20057;-62
2021/12/29 02:21:32;;;;;;;12.25;5.00;;;;;;;-11.71;100.00;99173.16;5151559;27;20433;-63
2021/12/29 02:24:18;;;;;;;15.18;6.05;;;;;;;-11.66;100.00;99181.25;5151468;27;20100;-62
2021/12/29 02:26:45;;;;;;;6.80;3.22;;;;;;;-11.62;100.00;99188.53;5151195;27;20047;-63
2021/12/29 02:29:14;;;;;;;8.25;4.40;;;;;;;-11.58;100.00;99186.25;5151319;27;20051;-62
2021/12/29 02:31:41;;;;;;;12.98;5.60;;;;;;;-11.66;100.00;99168.00;5151136;27;20645;-62
2021/12/29 02:34:10;;;;;;;15.98;6.05;;;;;;;-11.70;100.00;99161.56;5151361;27;20134;-63
2021/12/29 02:36:43;;;;;;;9.25;4.57;;;;;;;-11.77;100.00;99159.00;5151278;27;20150;-62
2021/12/29 02:39:10;;;;;;;10.20;4.75;;;;;;;-11.84;100.00;99144.25;5151775;27;20087;-62
2021/12/29 02:41:40;;;;;;;11.95;5.70;;;;;;;-11.82;100.00;99140.34;5151320;27;20074;-63
2021/12/29 02:44:10;;;;;;;9.13;4.38;;;;;;;-11.90;100.00;99140.66;5150880;27;20051;-62
2021/12/29 02:46:38;;;;;;;9.75;4.70;;;;;;;-11.84;100.00;99146.91;5151135;27;20057;-62
2021/12/29 02:49:04;;;;;;;8.90;4.90;;;;;;;-11.91;100.00;99150.41;5151087;27;20058;-63
2021/12/29 02:51:33;;;;;;;11.55;5.03;;;;;;;-11.91;100.00;99157.53;5151179;27;20051;-63
2021/12/29 02:54:01;;;;;;;7.25;4.10;;;;;;;-11.94;100.00;99164.06;5150897;27;20101;-62
2021/12/29 02:56:28;;;;;;;10.20;4.75;;;;;;;-11.92;100.00;99161.22;5151021;27;20060;-62
2021/12/29 02:58:55;;;;;;;11.32;4.90;;;;;;;-12.00;100.00;99146.44;5150875;27;20436;-63
2021/12/29 03:01:22;;;;;;;10.90;5.65;;;;;;;-11.98;100.00;99159.44;5150861;27;20061;-63
2021/12/29 03:03:48;;;;;;;12.40;5.28;;;;;;;-11.96;100.00;99154.75;5150962;27;20043;-62
2021/12/29 03:06:15;;;;;;;13.32;5.45;;;;;;;-11.96;100.00;99149.44;5150694;27;20126;-62
2021/12/29 03:08:42;;;;;;;12.57;5.30;;;;;;;-11.97;100.00;99139.91;5151027;27;20047;-63
2021/12/29 03:11:09;;;;;;;16.75;6.03;;;;;;;-11.99;100.00;99145.44;5150549;27;20050;-62
2021/12/29 03:13:38;;;;;;;17.30;5.60;;;;;;;-12.00;100.00;99135.88;5150826;27;20461;-63
2021/12/29 03:16:05;;;;;;;13.05;5.95;;;;;;;-11.93;100.00;99141.09;5150691;27;20107;-62
2021/12/29 03:18:31;;;;;;;11.02;5.03;;;;;;;-12.04;100.00;99110.91;5150672;27;20544;-62
2021/12/29 03:20:58;;;;;;;14.05;5.10;;;;;;;-12.01;100.00;99112.31;5150321;27;20054;-63
2021/12/29 03:23:25;;;;;;;14.07;5.88;;;;;;;-11.99;100.00;99111.06;5150478;27;20057;-63
2021/12/29 03:25:52;;;;;;;9.90;4.68;;;;;;;-12.01;100.00;99105.19;5153127;27;20069;-63
2021/12/29 03:28:21;;;;;;;9.73;5.22;;;;;;;-12.07;100.00;99099.97;5153827;27;20046;-62
2021/12/29 03:30:51;;;;;;;9.30;4.65;;;;;;;-12.11;100.00;99089.03;5153918;27;20458;-63
2021/12/29 03:33:19;;;;;;;13.82;5.68;;;;;;;-12.10;100.00;99091.44;5153910;27;20055;-62
2021/12/29 03:35:47;;;;;;;10.52;5.00;;;;;;;-12.15;100.00;99078.09;5153840;27;20053;-63
2021/12/29 03:38:16;;;;;;;13.27;5.70;;;;;;;-12.19;100.00;99074.28;5153866;27;20083;-62
2021/12/29 03:40:43;;;;;;;10.40;5.10;;;;;;;-12.25;100.00;99054.00;5154002;27;20358;-62
2021/12/29 03:43:11;;;;;;;9.40;5.13;;;;;;;-12.24;100.00;99062.75;5153381;27;20057;-62
2021/12/29 03:45:39;;;;;;;9.82;5.07;;;;;;;-12.20;100.00;99070.00;5153962;27;20076;-62
2021/12/29 03:48:06;;;;;;;10.57;4.80;;;;;;;-12.29;100.00;99062.56;5153579;27;20050;-62
2021/12/29 03:50:32;;;;;;;14.55;5.40;;;;;;;-12.30;100.00;99060.97;5153874;27;20050;-63
2021/12/29 03:52:58;;;;;;;12.60;6.43;;;;;;;-12.29;100.00;99058.13;5153714;27;20050;-62
2021/12/29 03:55:25;;;;;;;13.65;5.55;;;;;;;-12.27;100.00;99057.88;5153726;27;20055;-63
2021/12/29 03:57:51;;;;;;;9.98;5.82;;;;;;;-12.36;100.00;99047.63;5153600;27;20057;-62
2021/12/29 04:00:21;;;;;;;13.98;4.95;;;;;;;-12.35;100.00;99043.16;5153466;27;20051;-62
2021/12/29 04:02:48;;;;;;;13.68;5.13;;;;;;;-12.42;100.00;99032.66;5153203;27;20099;-62
2021/12/29 04:05:17;;;;;;;17.15;5.90;;;;;;;-12.44;100.00;99037.31;5153760;27;20050;-62
2021/12/29 04:07:43;;;;;;;10.63;5.68;;;;;;;-12.48;100.00;99030.06;5153855;27;20236;-63
2021/12/29 04:10:11;;;;;;;11.38;5.40;;;;;;;-12.40;100.00;99029.78;5153522;27;20046;-62
2021/12/29 04:12:39;;;;;;;15.23;6.15;;;;;;;-12.41;100.00;99023.69;5153768;27;20046;-63
2021/12/29 04:15:06;;;;;;;11.15;5.25;;;;;;;-12.34;100.00;99018.34;5153310;27;20521;-62
2021/12/29 04:17:37;;;;;;;10.93;5.00;;;;;;;-12.32;100.00;99015.50;5153583;27;20051;-62
2021/12/29 04:22:49;;;;;;;12.90;4.97;;;;;;;-12.47;100.00;98968.28;5153195;27;20046;-63
2021/12/29 04:25:17;;;;;;;12.20;5.65;;;;;;;-12.50;100.00;98960.81;5153418;27;20050;-63
2021/12/29 04:27:43;;;;;;;10.70;5.55;;;;;;;-12.48;100.00;98958.75;5152913;27;20058;-63
2021/12/29 04:30:10;;;;;;;12.60;6.15;;;;;;;-12.52;100.00;98954.97;5153188;27;20426;-62
2021/12/29 04:32:36;;;;;;;15.35;6.60;;;;;;;-12.47;100.00;98952.44;5153184;27;20051;-63
2021/12/29 04:35:03;;;;;;;13.57;5.60;;;;;;;-12.50;100.00;98940.47;5153092;27;20051;-62
2021/12/29 04:37:29;;;;;;;10.43;4.85;;;;;;;-12.45;100.00;98945.13;5153021;27;20046;-63
2021/12/29 04:39:56;;;;;;;18.98;6.03;;;;;;;-12.47;100.00;98933.97;5153282;27;20047;-62
2021/12/29 04:42:22;;;;;;;14.68;4.90;;;;;;;-12.42;100.00;98939.41;5152682;27;20139;-62
2021/12/29 04:44:48;;;;;;;15.05;6.47;;;;;;;-12.34;100.00;98941.72;5153242;27;20134;-62
2021/12/29 04:47:14;;;;;;;10.18;4.93;;;;;;;-12.34;100.00;98950.44;5152789;27;20050;-62
2021/12/29 04:49:42;;;;;;;13.55;5.63;;;;;;;-12.37;100.00;98932.41;5152690;27;20146;-63
2021/12/29 04:52:10;;;;;;;9.63;4.80;;;;;;;-12.33;100.00;98940.69;5152536;27;20053;-62
2021/12/29 04:54:37;;;;;;;16.33;6.32;;;;;;;-12.25;100.00;98939.59;5152749;27;20060;-62
2021/12/29 04:57:05;;;;;;;10.95;5.13;;;;;;;-12.22;100.00;98945.25;5152829;27;20042;-62
2021/12/29 04:59:31;;;;;;;10.50;4.82;;;;;;;-12.20;100.00;98958.22;5152845;27;20558;-63
2021/12/29 05:01:57;;;;;;;14.25;6.68;;;;;;;-12.24;100.00;98943.84;5152971;27;20055;-62
2021/12/29 05:04:31;;;;;;;13.93;5.88;;;;;;;-12.24;100.00;98946.47;5152378;27;20477;-63
2021/12/29 05:09:43;;;;;;;16.13;6.68;;;;;;;-12.14;100.00;98963.41;5152444;27;20099;-62
2021/12/29 05:12:09;;;;;;;13.57;5.85;;;;;;;-12.17;100.00;98955.13;5152394;27;20053;-62
2021/12/29 05:14:36;;;;;;;15.68;6.97;;;;;;;-12.17;100.00;98968.34;5152202;27;20070;-62
2021/12/29 05:17:03;;;;;;;11.35;5.22;;;;;;;-12.10;100.00;98983.09;5152273;27;20049;-62
2021/12/29 05:19:29;;;;;;;15.50;5.32;;;;;;;-12.05;100.00;99010.69;5152113;27;20421;-62
2021/12/29 05:21:56;;;;;;;12.93;5.57;;;;;;;-12.08;100.00;99011.16;5152107;27;20568;-63
2021/12/29 05:24:22;;;;;;;16.50;6.10;;;;;;;-12.17;100.00;99014.06;5152586;27;20093;-62
2021/12/29 05:26:49;;;;;;;16.85;6.50;;;;;;;-12.07;100.00;99039.97;5152069;27;20051;-66
2021/12/29 05:29:15;;;;;;;11.25;5.03;;;;;;;-11.98;100.00;99053.72;5151904;27;20054;-72
2021/12/29 05:31:41;;;;;;;15.23;6.35;;;;;;;-11.93;100.00;99089.00;5152050;27;20098;-66
2021/12/29 05:34:08;;;;;;;18.83;6.38;;;;;;;-11.97;100.00;99094.97;5152388;27;20050;-67
2021/12/29 05:36:34;;;;;;;15.15;5.90;;;;;;;-12.00;100.00;99098.84;5151938;27;20046;-67
2021/12/29 05:39:00;;;;;;;12.60;5.47;;;;;;;-11.98;100.00;99122.44;5152446;27;20061;-55
2021/12/29 05:41:26;;;;;;;12.07;5.72;;;;;;;-12.03;100.00;99135.50;5151997;27;20049;-57
2021/12/29 05:43:53;;;;;;;17.50;6.18;;;;;;;-12.01;100.00;99149.31;5151572;27;20043;-61
2021/12/29 05:46:19;;;;;;;12.40;6.03;;;;;;;-11.94;100.00;99158.78;5151702;27;20047;-59
2021/12/29 05:48:46;;;;;;;19.85;7.93;;;;;;;-11.95;100.00;99169.59;5150656;27;20053;-60
2021/12/29 05:51:12;;;;;;;15.05;6.20;;;;;;;-11.95;100.00;99173.03;5151782;27;20054;-59
2021/12/29 05:53:39;;;;;;;14.00;6.20;;;;;;;-12.01;100.00;99187.13;5151837;27;20068;-64
2021/12/29 05:56:05;;;;;;;15.00;6.75;;;;;;;-11.99;100.00;99195.66;5151736;27;20047;-62
2021/12/29 05:58:32;;;;;;;15.95;7.43;;;;;;;-11.95;100.00;99198.66;5151588;27;20055;-67
2021/12/29 06:00:59;;;;;;;18.40;6.63;;;;;;;-11.89;100.00;99213.66;5151506;27;20047;-71
2021/12/29 06:03:26;;;;;;;15.75;6.95;;;;;;;-11.93;100.00;99209.81;5149383;27;20432;-59
2021/12/29 06:05:53;;;;;;;13.68;6.05;;;;;;;-11.88;100.00;99228.50;5151663;27;20052;-58
2021/12/29 06:08:19;;;;;;;13.98;6.45;;;;;;;-12.12;100.00;99215.06;5151068;27;20178;-63
2021/12/29 06:10:46;;;;;;;11.88;5.75;;;;;;;-12.16;100.00;99198.03;5151256;27;20579;-62
2021/12/29 06:13:12;;;;;;;15.25;7.03;;;;;;;-12.18;100.00;99215.13;5151112;27;20051;-62
2021/12/29 06:15:38;;;;;;;13.88;6.78;;;;;;;-11.96;100.00;99223.47;5160680;27;20492;-62
2021/12/29 06:18:06;;;;;;;12.05;5.22;;;;;;;-11.67;100.00;99256.34;5171774;27;20064;-60
2021/12/29 06:20:32;;;;;;;24.88;7.40;;;;;;;-11.66;100.00;99258.78;5163618;27;20162;-65
2021/12/29 06:22:59;;;;;;;20.30;7.50;;;;;;;-10.77;100.00;99330.69;5151066;27;20549;-64
2021/12/29 06:25:29;;;;;;;20.67;7.22;;;;;;;-10.23;100.00;99376.69;5147240;27;20086;-64
2021/12/29 06:27:55;;;;;;;11.30;6.10;;;;;;;-10.77;100.00;99367.78;5151345;27;20086;-61
2021/12/29 06:30:21;;;;;;;17.38;6.20;;;;;;;-10.85;100.00;99332.84;5151110;27;20058;-64
2021/12/29 06:32:48;;;;;;;12.13;6.05;;;;;;;-11.06;100.00;99303.16;5151203;27;20051;-62
2021/12/29 06:35:15;;;;;;;15.25;5.88;;;;;;;-11.12;100.00;99280.19;5151139;27;20055;-64
2021/12/29 06:37:42;;;;;;;10.93;6.38;;;;;;;-11.21;100.00;99255.84;5151033;27;20141;-64
2021/12/29 06:40:09;;;;;;;12.75;5.60;;;;;;;-11.31;100.00;99223.00;5159149;27;20137;-65
2021/12/29 06:42:35;;;;;;;13.93;7.00;;;;;;;-11.43;100.00;99205.22;5167424;27;20051;-66
2021/12/29 06:45:03;;;;;;;13.07;5.70;;;;;;;-11.44;100.00;99184.25;5151096;27;20047;-66
2021/12/29 06:47:29;;;;;;;14.00;5.85;;;;;;;-11.55;100.00;99164.66;5150691;27;20108;-59
2021/12/29 06:49:56;;;;;;;12.57;5.78;;;;;;;-11.70;100.00;99150.97;5161269;27;20058;-60
2021/12/29 06:52:23;;;;;;;8.50;4.70;;;;;;;-11.76;100.00;99138.63;5171961;27;20046;-60
2021/12/29 06:54:49;;;;;;;14.15;5.60;;;;;;;-11.79;100.00;99126.69;5171537;27;20057;-58
2021/12/29 06:57:15;;;;;;;15.15;6.47;;;;;;;-11.80;100.00;99125.03;5171674;27;20050;-60
2021/12/29 06:59:42;;;;;;;15.88;7.15;;;;;;;-11.94;100.00;99113.84;5170316;27;20133;-61
2021/12/29 07:02:09;;;;;;;15.18;6.95;;;;;;;-11.94;100.00;99121.78;5154313;27;20144;-61
2021/12/29 07:04:36;;;;;;;18.50;5.38;;;;;;;-11.97;100.00;99116.13;5154580;27;20054;-62
2021/12/29 07:07:02;;;;;;;17.33;6.50;;;;;;;-12.05;100.00;99119.88;5154310;27;20046;-62
2021/12/29 07:09:29;;;;;;;14.75;6.05;;;;;;;-12.03;100.00;99127.56;5158294;27;20050;-64
2021/12/29 07:11:56;;;;;;;14.27;6.82;;;;;;;-12.05;100.00;99148.13;5154087;27;20046;-63
2021/12/29 07:14:22;;;;;;;15.43;6.28;;;;;;;-11.97;100.00;99155.78;5154235;27;20046;-62
2021/12/29 07:16:50;;;;;;;23.52;9.02;;;;;;;-12.00;100.00;99156.22;5154279;27;20066;-62
2021/12/29 07:19:17;;;;;;;24.63;9.85;;;;;;;-11.99;100.00;99158.66;5154217;27;20051;-66
2021/12/29 07:21:43;;;;;;;21.90;9.35;;;;;;;-11.94;100.00;99165.91;5153887;27;20145;-63
2021/12/29 07:24:10;;;;;;;26.13;10.05;;;;;;;-12.02;100.00;99169.66;5153975;27;20051;-61
2021/12/29 07:26:37;;;;;;;22.15;8.73;;;;;;;-12.10;100.00;99164.63;5154057;27;20497;-57
2021/12/29 07:29:05;;;;;;;18.75;8.75;;;;;;;-12.05;100.00;99180.66;5153900;27;20050;-59
2021/12/29 07:31:31;;;;;;;16.65;8.90;;;;;;;-11.99;100.00;99184.28;5153852;27;20061;-60
2021/12/29 07:33:58;;;;;;;21.48;7.90;;;;;;;-12.03;100.00;99188.34;5154435;27;20046;-59
2021/12/29 07:36:24;;;;;;;17.27;8.07;;;;;;;-12.02;100.00;99190.81;5153358;27;20543;-59
2021/12/29 07:38:50;;;;;;;15.75;7.53;;;;;;;-12.02;100.00;99182.06;5157290;27;20105;-57
2021/12/29 07:41:17;;;;;;;19.73;8.85;;;;;;;-11.91;100.00;99191.91;5146327;27;20043;-62
2021/12/29 07:43:44;;;;;;;22.05;9.40;;;;;;;-11.88;100.00;99197.56;5134058;27;20106;-60
2021/12/29 07:46:12;;;;;;;17.60;7.68;;;;;;;-11.81;100.00;99191.38;5131666;28;20501;-57
2021/12/29 07:48:39;;;;;;;22.42;9.82;;;;;;;-11.37;100.00;99214.91;5131098;28;20105;-58
2021/12/29 07:51:06;;;;;;;14.68;6.78;;;;;;;-11.28;100.00;99202.19;5154896;27;20061;-60
2021/12/29 07:53:34;;;;;;;25.92;9.25;;;;;;;-11.26;100.00;99172.84;5173679;27;20050;-57
2021/12/29 07:56:00;;;;;;;16.17;7.43;;;;;;;-10.99;100.00;99158.25;5158468;27;20141;-58
2021/12/29 07:58:26;;;;;;;17.67;7.60;;;;;;;-10.95;100.00;99125.00;5153253;27;20509;-57
2021/12/29 08:00:53;;;;;;;14.57;6.50;;;;;;;-10.86;100.00;99083.13;5153589;27;20047;-57
2021/12/29 08:03:20;;;;;;;16.15;8.20;;;;;;;-10.68;100.00;99068.97;5152934;27;20054;-59
2021/12/29 08:05:46;;;;;;;18.75;7.32;;;;;;;-10.26;100.00;99060.91;5153606;27;20047;-55
2021/12/29 08:08:12;;;;;;;18.67;7.75;;;;;;;-10.07;100.00;99017.28;5166148;27;20133;-59
2021/12/29 08:10:40;;;;;;;17.42;7.50;;;;;;;-9.77;100.00;98973.81;5148128;27;20141;-64
2021/12/29 08:13:08;;;;;;;18.38;7.80;;;;;;;-9.85;100.00;98876.88;5153195;27;20091;-60
2021/12/29 08:15:35;;;;;;;15.15;7.47;;;;;;;-9.76;100.00;98803.81;5153164;27;20544;-60
2021/12/29 08:18:04;;;;;;;16.65;7.32;;;;;;;-9.64;100.00;98737.41;5153247;27;20066;-61
2021/12/29 08:20:32;;;;;;;15.85;7.35;;;;;;;-9.47;100.00;98685.09;5153161;27;20051;-62
2021/12/29 08:22:59;;;;;;;18.50;6.88;;;;;;;-9.36;100.00;98632.13;5152877;27;20047;-52
2021/12/29 08:25:25;;;;;;;17.73;7.93;;;;;;;-8.98;100.00;98606.50;5155265;27;20543;-54
2021/12/29 08:27:51;;;;;;;17.75;7.90;;;;;;;-8.96;100.00;98548.63;5162853;27;20043;-58
2021/12/29 08:30:18;;;;;;;16.65;7.97;;;;;;;-9.04;100.00;98486.94;5152881;27;20042;-54
2021/12/29 08:32:45;;;;;;;13.70;7.28;;;;;;;-8.95;100.00;98449.31;5152916;27;20053;-53
2021/12/29 08:35:12;;;;;;;16.35;8.45;;;;;;;-8.62;100.00;98438.34;5152385;27;20047;-60
2021/12/29 08:37:38;;;;;;;14.45;7.57;;;;;;;-8.70;100.00;98398.16;5152345;27;20046;-57
2021/12/29 08:40:08;;;;;;;16.83;8.68;;;;;;;-8.90;100.00;98369.63;5152579;27;20161;-56
2021/12/29 08:42:34;;;;;;;18.10;8.27;;;;;;;-9.12;100.00;98337.94;5152030;27;20110;-62
2021/12/29 08:45:01;;;;;;;18.25;8.32;;;;;;;-9.33;100.00;98340.47;5152592;27;20508;-62
2021/12/29 08:47:27;;;;;;;15.95;8.07;;;;;;;-9.69;100.00;98355.31;5153622;27;20050;-60
2021/12/29 08:49:53;;;;;;;22.10;6.75;;;;;;;-9.70;100.00;98380.22;5152569;27;20458;-65
2021/12/29 08:52:20;;;;;;;14.32;6.07;;;;;;;-9.78;100.00;98410.69;5152359;27;20046;-57
2021/12/29 08:54:47;;;;;;;15.30;6.40;;;;;;;-9.96;100.00;98432.25;5147092;27;20051;-61
2021/12/29 08:57:13;;;;;;;15.93;7.88;;;;;;;-9.98;100.00;98482.88;5131072;27;20516;-57
2021/12/29 08:59:39;;;;;;;17.48;8.32;;;;;;;-10.00;100.00;98522.06;5131693;28;20092;-55
2021/12/29 09:02:06;;;;;;;16.50;7.55;;;;;;;-10.20;100.00;98559.72;5131751;28;20047;-61
2021/12/29 09:04:32;;;;;;;21.08;8.07;;;;;;;-10.14;100.00;98618.13;5132146;28;20158;-60
2021/12/29 09:06:58;;;;;;;19.27;8.43;;;;;;;-10.01;100.00;98668.16;5131702;28;20047;-62
2021/12/29 09:09:25;;;;;;;16.08;6.82;;;;;;;-9.96;100.00;98724.75;5131948;28;20174;-57
2021/12/29 09:11:53;;;;;;;20.33;8.35;;;;;;;-9.88;100.00;98770.47;5131701;28;20466;-59
2021/12/29 09:14:19;;;;;;;21.67;8.60;;;;;;;-9.78;100.00;98795.28;5136956;27;20051;-61
2021/12/29 09:16:46;;;;;;;25.17;10.00;;;;;;;-9.72;100.00;98822.72;5137402;27;20142;-58
2021/12/29 09:19:13;;;;;;;19.40;8.32;;;;;;;-9.72;100.00;98822.72;5157332;27;20051;-64
2021/12/29 09:21:43;;;;;;;16.85;8.25;;;;;;;-9.74;100.00;98827.44;5157479;27;20043;-64
2021/12/29 09:24:09;;;;;;;23.75;9.02;;;;;;;-9.60;100.00;98849.94;5151900;27;20450;-63
2021/12/29 09:26:36;;;;;;;20.85;8.13;;;;;;;-9.68;100.00;98842.41;5152173;27;20228;-58
2021/12/29 09:29:03;;;;;;;14.27;7.15;;;;;;;-9.71;100.00;98842.88;5162856;27;20052;-60
2021/12/29 09:31:30;;;;;;;19.67;8.23;;;;;;;-9.76;100.00;98870.16;5172890;27;20106;-58
2021/12/29 09:33:57;;;;;;;20.75;8.07;;;;;;;-9.66;100.00;98901.34;5172701;27;20057;-56
2021/12/29 09:36:23;;;;;;;21.42;8.98;;;;;;;-9.56;100.00;98924.56;5155410;27;20805;-58
2021/12/29 09:38:50;;;;;;;18.83;8.52;;;;;;;-9.51;100.00;98936.09;5152844;27;20082;-59
2021/12/29 09:41:18;;;;;;;17.70;7.80;;;;;;;-9.43;100.00;98952.66;5151083;27;20148;-54
2021/12/29 09:43:47;;;;;;;20.65;8.63;;;;;;;-9.40;100.00;98949.53;5152052;27;20103;-57
2021/12/29 09:46:14;;;;;;;16.52;7.97;;;;;;;-9.37;100.00;98951.69;5151600;27;20141;-54
2021/12/29 09:48:41;;;;;;;17.15;8.25;;;;;;;-9.30;100.00;98958.47;5130695;27;20057;-55
2021/12/29 09:51:11;;;;;;;20.88;8.20;;;;;;;-9.33;100.00;98948.34;5131138;28;20047;-53
2021/12/29 09:53:38;;;;;;;21.75;9.10;;;;;;;-9.29;100.00;98944.16;5129900;28;20047;-52
2021/12/29 09:56:05;;;;;;;19.27;8.77;;;;;;;-9.31;100.00;98953.41;5131115;27;20047;-54
2021/12/29 09:58:31;;;;;;;14.95;7.93;;;;;;;-9.29;100.00;98954.78;5130509;27;20059;-54
2021/12/29 10:01:04;;;;;;;18.40;8.68;;;;;;;-9.20;100.00;98944.53;5130587;28;20055;-54
2021/12/29 10:03:31;;;;;;;16.08;8.57;;;;;;;-9.04;100.00;98954.38;5128243;28;20146;-55
2021/12/29 10:06:00;;;;;;;18.02;8.25;;;;;;;-9.11;100.00;98926.38;5133028;27;20091;-57
2021/12/29 10:08:28;;;;;;;20.15;9.18;;;;;;;-9.14;100.00;98927.66;5151333;27;20400;-56
2021/12/29 10:10:57;;;;;;;22.05;8.23;;;;;;;-9.15;100.00;98918.09;5151112;27;20137;-54
2021/12/29 10:13:24;;;;;;;18.95;8.02;;;;;;;-9.17;100.00;98930.78;5150922;27;20553;-56
2021/12/29 10:15:53;;;;;;;18.45;8.52;;;;;;;-9.07;100.00;98946.06;5146093;27;20047;-56
2021/12/29 10:18:22;;;;;;;14.38;8.07;;;;;;;-9.06;100.00;98956.47;5129881;28;20051;-56
2021/12/29 10:20:51;;;;;;;17.75;6.72;;;;;;;-9.11;100.00;98947.63;5130470;28;20047;-57
2021/12/29 10:23:20;;;;;;;17.17;8.93;;;;;;;-9.10;100.00;98954.53;5147593;27;20043;-60
2021/12/29 10:25:47;;;;;;;19.40;9.43;;;;;;;-9.07;100.00;98969.97;5154455;27;20050;-61
2021/12/29 10:28:34;;;;;;;19.65;8.02;;;;;;;-8.94;100.00;98985.59;5171876;27;20056;-57
2021/12/29 10:31:04;;;;;;;20.10;9.18;;;;;;;-9.04;100.00;98980.91;5164382;27;20054;-59
2021/12/29 10:33:35;;;;;;;21.08;8.80;;;;;;;-8.98;100.00;98994.31;5172705;27;20046;-58
2021/12/29 10:36:12;;;;;;;20.00;8.82;;;;;;;-8.89;100.00;98992.84;5170160;27;20102;-56
2021/12/29 10:38:39;;;;;;;15.60;7.15;;;;;;;-8.90;100.00;98991.22;5165809;27;20202;-54
2021/12/29 10:41:06;;;;;;;20.13;9.07;;;;;;;-8.90;100.00;98999.19;5176015;27;20046;-57
2021/12/29 10:43:32;;;;;;;18.02;8.40;;;;;;;-8.74;100.00;99008.22;5175419;27;20102;-58
2021/12/29 10:45:59;;;;;;;19.55;8.48;;;;;;;-8.66;100.00;99013.09;5175508;27;20050;-56
2021/12/29 10:48:27;;;;;;;26.42;8.55;;;;;;;-8.52;100.00;99010.94;5165457;27;20051;-63
2021/12/29 10:50:56;;;;;;;18.35;8.23;;;;;;;-8.54;100.00;98981.94;5133657;28;20113;-62
2021/12/29 10:53:23;;;;;;;19.85;7.53;;;;;;;-8.51;100.00;98980.66;5133861;28;20043;-58
2021/12/29 10:55:50;;;;;;;20.38;8.80;;;;;;;-8.40;100.00;98975.19;5133926;28;20153;-53
2021/12/29 10:58:18;;;;;;;16.55;8.25;;;;;;;-8.32;100.00;98963.31;5149412;27;20080;-56
2021/12/29 11:00:48;;;;;;;17.27;8.45;;;;;;;-8.26;100.00;98956.19;5175410;27;20053;-58
2021/12/29 11:03:16;;;;;;;21.48;8.48;;;;;;;-8.25;100.00;98941.88;5175811;27;20046;-60
2021/12/29 11:05:47;;;;;;;17.63;8.30;;;;;;;-8.16;100.00;98935.88;5175008;27;20046;-62
2021/12/29 11:08:16;;;;;;;19.85;9.13;;;;;;;-8.10;100.00;98918.91;5168732;27;20046;-65
2021/12/29 11:10:43;;;;;;;21.00;9.15;;;;;;;-7.89;100.00;98919.16;5154365;27;20054;-63
2021/12/29 11:13:12;;;;;;;20.30;9.18;;;;;;;-7.82;100.00;98882.50;5154031;27;20051;-62
2021/12/29 11:15:41;;;;;;;20.38;9.98;;;;;;;-7.82;100.00;98848.69;5154205;27;20084;-62
2021/12/29 11:18:10;;;;;;;21.70;8.57;;;;;;;-7.74;100.00;98807.50;5159505;27;20421;-59